PWSweather.com
Personal Weather Stations
Station Observations
ARECO747
Argentina , San Antonio ArecoAR Bs.As

Argentina San Antonio ArecoAR Bs.As

Lat: -34.24447275818, Lon: -59.47654187679

Elevation: 102

Station Type: InformaciĆ³n generada con nuevo Microchip Ethernet conectado a estaciĆ³n WH1081

http://www.meteostar.com.ar

Latest ConditionsUpdated 6:08:12 AM GMT-03:57 Friday, Feb 22, 2019
Currently Today's Max Today's Min Today's Average
Temperature 75.9°F24.4°C 78.6°F25.9°C 75.9°F24.4°C 77.5°F25.3°C
Dew Point 61.5°F16.4°C 64.9°F18.3°C 61.5°F16.4°C 63.3°F17.4°C
Winds 2.2 mph 3.5 kmh 3.1 mph -5.0 kmh - - 1.6 mph 2.6 kmh
Wind Gusts 3.8 mph6.1 kmh 5.4 mph8.7 kmh - -
Humidity 61% 63% 60% 62%
Pressure 29.70 in1005.8 mb 29.76 in1007.8 mb 29.69 in1005.4 mb -
Hour Temp Dew Point Humidity Winds Wind Gusts Pressure Precip Precip Rate Daily Precip Total
06:08 AM 75.9°F24.4°C 61.5°F16.4°C 61% 2.2 mph 3.5 kmh 3.8 mph6.1 kmh 29.70 in1005.8 mb 0.00 in0.0 mm 0.00 in0.0 mm 0.00 in0.0 mm
06:03 AM 76.1°F24.5°C 61.7°F16.5°C 61% 2.2 mph NE3.5 kmh NE 4.5 mph7.2 kmh 29.70 in1005.8 mb 0.00 in0.0 mm 0.00 in0.0 mm 0.00 in0.0 mm
05:57 AM 76.3°F24.6°C 61.9°F16.6°C 61% 1.6 mph NE2.6 kmh NE 3.1 mph5.0 kmh 29.70 in1005.8 mb 0.00 in0.0 mm 0.00 in0.0 mm 0.00 in0.0 mm
05:52 AM 76.3°F24.6°C 61.9°F16.6°C 61% 1.6 mph 2.6 kmh 3.1 mph5.0 kmh 29.70 in1005.8 mb 0.00 in0.0 mm 0.00 in0.0 mm 0.00 in0.0 mm
05:47 AM 76.3°F24.6°C 61.9°F16.6°C 61% 0.7 mph 1.1 kmh 3.8 mph6.1 kmh 29.71 in1006.1 mb 0.00 in0.0 mm 0.00 in0.0 mm 0.00 in0.0 mm
05:42 AM 76.1°F24.5°C 61.7°F16.5°C 61% 2.2 mph 3.5 kmh 5.4 mph8.7 kmh 29.70 in1005.8 mb 0.00 in0.0 mm 0.00 in0.0 mm 0.00 in0.0 mm
05:37 AM 76.3°F24.6°C 61.9°F16.6°C 61% 1.6 mph NW2.6 kmh NW 4.5 mph7.2 kmh 29.70 in1005.8 mb 0.00 in0.0 mm 0.00 in0.0 mm 0.00 in0.0 mm
05:32 AM 76.3°F24.6°C 61.9°F16.6°C 61% 1.6 mph NE2.6 kmh NE 3.8 mph6.1 kmh 29.69 in1005.4 mb 0.00 in0.0 mm 0.00 in0.0 mm 0.00 in0.0 mm
05:26 AM 76.3°F24.6°C 61.9°F16.6°C 61% 2.2 mph E3.5 kmh E 3.8 mph6.1 kmh 29.69 in1005.4 mb 0.00 in0.0 mm 0.00 in0.0 mm 0.00 in0.0 mm
05:21 AM 76.3°F24.6°C 61.9°F16.6°C 61% 2.2 mph 3.5 kmh 5.4 mph8.7 kmh 29.69 in1005.4 mb 0.00 in0.0 mm 0.00 in0.0 mm 0.00 in0.0 mm
05:16 AM 76.3°F24.6°C 61.9°F16.6°C 61% 2.2 mph NE3.5 kmh NE 3.8 mph6.1 kmh 29.69 in1005.4 mb 0.00 in0.0 mm 0.00 in0.0 mm 0.00 in0.0 mm
05:11 AM 76.3°F24.6°C 62.2°F16.8°C 62% 1.6 mph 2.6 kmh 3.1 mph5.0 kmh 29.70 in1005.8 mb 0.00 in0.0 mm 0.00 in0.0 mm 0.00 in0.0 mm
05:06 AM 76.3°F24.6°C 62.2°F16.8°C 62% 0.7 mph 1.1 kmh 3.8 mph6.1 kmh 29.70 in1005.8 mb 0.00 in0.0 mm 0.00 in0.0 mm 0.00 in0.0 mm
05:01 AM 76.3°F24.6°C 62.2°F16.8°C 62% 1.6 mph NW2.6 kmh NW 3.8 mph6.1 kmh 29.70 in1005.8 mb 0.00 in0.0 mm 0.00 in0.0 mm 0.00 in0.0 mm
04:55 AM 76.3°F24.6°C 62.2°F16.8°C 62% 0.7 mph 1.1 kmh 2.2 mph3.5 kmh 29.70 in1005.8 mb 0.00 in0.0 mm 0.00 in0.0 mm 0.00 in0.0 mm
04:50 AM 76.3°F24.6°C 62.2°F16.8°C 62% 0.7 mph 1.1 kmh 2.2 mph3.5 kmh 29.70 in1005.8 mb 0.00 in0.0 mm 0.00 in0.0 mm 0.00 in0.0 mm
04:45 AM 76.3°F24.6°C 62.2°F16.8°C 62% 1.6 mph 2.6 kmh 3.8 mph6.1 kmh 29.70 in1005.8 mb 0.00 in0.0 mm 0.00 in0.0 mm 0.00 in0.0 mm
04:40 AM 76.3°F24.6°C 62.8°F17.1°C 63% 1.6 mph NE2.6 kmh NE 4.5 mph7.2 kmh 29.70 in1005.8 mb 0.00 in0.0 mm 0.00 in0.0 mm 0.00 in0.0 mm
04:35 AM 76.3°F24.6°C 62.8°F17.1°C 63% 1.6 mph NNW2.6 kmh NNW 3.8 mph6.1 kmh 29.69 in1005.4 mb 0.00 in0.0 mm 0.00 in0.0 mm 0.00 in0.0 mm
04:30 AM 76.3°F24.6°C 62.8°F17.1°C 63% 3.1 mph NE5.0 kmh NE 4.5 mph7.2 kmh 29.69 in1005.4 mb 0.00 in0.0 mm 0.00 in0.0 mm 0.00 in0.0 mm
04:24 AM 76.5°F24.7°C 63.0°F17.2°C 63% 1.6 mph 2.6 kmh 3.1 mph5.0 kmh 29.69 in1005.4 mb 0.00 in0.0 mm 0.00 in0.0 mm 0.00 in0.0 mm
04:19 AM 76.5°F24.7°C 63.0°F17.2°C 63% 1.6 mph NE2.6 kmh NE 4.5 mph7.2 kmh 29.70 in1005.8 mb 0.00 in0.0 mm 0.00 in0.0 mm 0.00 in0.0 mm
04:14 AM 76.6°F24.8°C 63.1°F17.3°C 63% 1.6 mph ESE2.6 kmh ESE 3.8 mph6.1 kmh 29.70 in1005.8 mb 0.00 in0.0 mm 0.00 in0.0 mm 0.00 in0.0 mm
04:09 AM 76.6°F24.8°C 63.1°F17.3°C 63% 2.2 mph 3.5 kmh 3.8 mph6.1 kmh 29.70 in1005.8 mb 0.00 in0.0 mm 0.00 in0.0 mm 0.00 in0.0 mm
04:04 AM 76.6°F24.8°C 63.1°F17.3°C 63% 1.6 mph NE2.6 kmh NE 3.8 mph6.1 kmh 29.71 in1006.1 mb 0.00 in0.0 mm 0.00 in0.0 mm 0.00 in0.0 mm
03:58 AM 76.8°F24.9°C 63.3°F17.4°C 63% 3.1 mph NE5.0 kmh NE 3.8 mph6.1 kmh 29.71 in1006.1 mb 0.00 in0.0 mm 0.00 in0.0 mm 0.00 in0.0 mm
03:53 AM 77.0°F25.0°C 63.0°F17.2°C 62% 2.2 mph NE3.5 kmh NE 3.8 mph6.1 kmh 29.70 in1005.8 mb 0.00 in0.0 mm 0.00 in0.0 mm 0.00 in0.0 mm
03:48 AM 77.0°F25.0°C 63.0°F17.2°C 62% 1.6 mph E2.6 kmh E 3.8 mph6.1 kmh 29.71 in1006.1 mb 0.00 in0.0 mm 0.00 in0.0 mm 0.00 in0.0 mm
03:43 AM 77.4°F25.2°C 63.3°F17.4°C 62% 1.6 mph NE2.6 kmh NE 3.1 mph5.0 kmh 29.72 in1006.4 mb 0.00 in0.0 mm 0.00 in0.0 mm 0.00 in0.0 mm
03:38 AM 77.5°F25.3°C 63.0°F17.2°C 61% 0.7 mph NE1.1 kmh NE 3.1 mph5.0 kmh 29.72 in1006.4 mb 0.00 in0.0 mm 0.00 in0.0 mm 0.00 in0.0 mm
03:33 AM 77.7°F25.4°C 63.1°F17.3°C 61% 1.6 mph NE2.6 kmh NE 3.1 mph5.0 kmh 29.72 in1006.4 mb 0.00 in0.0 mm 0.00 in0.0 mm 0.00 in0.0 mm
03:27 AM 77.7°F25.4°C 63.1°F17.3°C 61% 1.6 mph NE2.6 kmh NE 3.1 mph5.0 kmh 29.72 in1006.4 mb 0.00 in0.0 mm 0.00 in0.0 mm 0.00 in0.0 mm
03:22 AM 77.7°F25.4°C 63.1°F17.3°C 61% 2.2 mph NE3.5 kmh NE 3.1 mph5.0 kmh 29.72 in1006.4 mb 0.00 in0.0 mm 0.00 in0.0 mm 0.00 in0.0 mm
03:17 AM 77.7°F25.4°C 63.1°F17.3°C 61% 2.2 mph E3.5 kmh E 3.1 mph5.0 kmh 29.72 in1006.4 mb 0.00 in0.0 mm 0.00 in0.0 mm 0.00 in0.0 mm
03:12 AM 77.7°F25.4°C 63.1°F17.3°C 61% 0.7 mph ENE1.1 kmh ENE 2.2 mph3.5 kmh 29.72 in1006.4 mb 0.00 in0.0 mm 0.00 in0.0 mm 0.00 in0.0 mm
03:07 AM 77.7°F25.4°C 63.1°F17.3°C 61% 1.6 mph E2.6 kmh E 3.1 mph5.0 kmh 29.71 in1006.1 mb 0.00 in0.0 mm 0.00 in0.0 mm 0.00 in0.0 mm
03:02 AM 77.7°F25.4°C 63.1°F17.3°C 61% 1.6 mph ENE2.6 kmh ENE 3.1 mph5.0 kmh 29.71 in1006.1 mb 0.00 in0.0 mm 0.00 in0.0 mm 0.00 in0.0 mm
02:56 AM 77.7°F25.4°C 63.1°F17.3°C 61% 0.7 mph E1.1 kmh E 2.2 mph3.5 kmh 29.72 in1006.4 mb 0.00 in0.0 mm 0.00 in0.0 mm 0.00 in0.0 mm
02:51 AM 77.7°F25.4°C 63.1°F17.3°C 61% 1.6 mph NE2.6 kmh NE 3.1 mph5.0 kmh 29.71 in1006.1 mb 0.00 in0.0 mm 0.00 in0.0 mm 0.00 in0.0 mm
02:46 AM 77.7°F25.4°C 63.1°F17.3°C 61% 1.6 mph NE2.6 kmh NE 3.1 mph5.0 kmh 29.71 in1006.1 mb 0.00 in0.0 mm 0.00 in0.0 mm 0.00 in0.0 mm
02:41 AM 78.4°F25.8°C 63.9°F17.7°C 61% 2.2 mph NE3.5 kmh NE 3.8 mph6.1 kmh 29.71 in1006.1 mb 0.00 in0.0 mm 0.00 in0.0 mm 0.00 in0.0 mm
02:36 AM 78.4°F25.8°C 63.9°F17.7°C 61% 2.2 mph ENE3.5 kmh ENE 3.8 mph6.1 kmh 29.71 in1006.1 mb 0.00 in0.0 mm 0.00 in0.0 mm 0.00 in0.0 mm
02:31 AM 78.4°F25.8°C 63.9°F17.7°C 61% 0.7 mph E1.1 kmh E 3.8 mph6.1 kmh 29.72 in1006.4 mb 0.00 in0.0 mm 0.00 in0.0 mm 0.00 in0.0 mm
02:25 AM 78.4°F25.8°C 63.9°F17.7°C 61% 2.2 mph E3.5 kmh E 3.1 mph5.0 kmh 29.71 in1006.1 mb 0.00 in0.0 mm 0.00 in0.0 mm 0.00 in0.0 mm
02:20 AM 78.6°F25.9°C 63.5°F17.5°C 60% 1.6 mph E2.6 kmh E 2.2 mph3.5 kmh 29.71 in1006.1 mb 0.00 in0.0 mm 0.00 in0.0 mm 0.00 in0.0 mm
02:15 AM 78.6°F25.9°C 63.5°F17.5°C 60% 0.7 mph NE1.1 kmh NE 3.1 mph5.0 kmh 29.71 in1006.1 mb 0.00 in0.0 mm 0.00 in0.0 mm 0.00 in0.0 mm
02:10 AM 78.6°F25.9°C 64.0°F17.8°C 61% 2.2 mph 3.5 kmh 3.1 mph5.0 kmh 29.71 in1006.1 mb 0.00 in0.0 mm 0.00 in0.0 mm 0.00 in0.0 mm
02:05 AM 78.4°F25.8°C 63.9°F17.7°C 61% Calm Calm -- 29.72 in1006.4 mb 0.00 in0.0 mm 0.00 in0.0 mm 0.00 in0.0 mm
02:02 AM 78.4°F25.8°C 63.9°F17.7°C 61% Calm Calm -- 29.72 in1006.4 mb 0.00 in0.0 mm 0.00 in0.0 mm 0.00 in0.0 mm
01:57 AM 78.4°F25.8°C 63.9°F17.7°C 61% Calm Calm 1.6 mph2.6 kmh 29.72 in1006.4 mb 0.00 in0.0 mm 0.00 in0.0 mm 0.00 in0.0 mm
01:51 AM 78.4°F25.8°C 63.9°F17.7°C 61% Calm Calm 0.7 mph1.1 kmh 29.72 in1006.4 mb 0.00 in0.0 mm 0.00 in0.0 mm 0.00 in0.0 mm
01:46 AM 78.4°F25.8°C 63.9°F17.7°C 61% Calm Calm 1.6 mph2.6 kmh 29.73 in1006.8 mb 0.00 in0.0 mm 0.00 in0.0 mm 0.00 in0.0 mm
01:41 AM 78.4°F25.8°C 63.9°F17.7°C 61% 0.7 mph NW1.1 kmh NW 2.2 mph3.5 kmh 29.73 in1006.8 mb 0.00 in0.0 mm 0.00 in0.0 mm 0.00 in0.0 mm
01:36 AM 78.4°F25.8°C 63.9°F17.7°C 61% Calm Calm 2.2 mph3.5 kmh 29.73 in1006.8 mb 0.00 in0.0 mm 0.00 in0.0 mm 0.00 in0.0 mm
01:31 AM 78.4°F25.8°C 63.9°F17.7°C 61% Calm Calm 2.2 mph3.5 kmh 29.73 in1006.8 mb 0.00 in0.0 mm 0.00 in0.0 mm 0.00 in0.0 mm
01:26 AM 78.4°F25.8°C 64.4°F18.0°C 62% 0.7 mph NE1.1 kmh NE 3.1 mph5.0 kmh 29.73 in1006.8 mb 0.00 in0.0 mm 0.00 in0.0 mm 0.00 in0.0 mm
01:20 AM 77.7°F25.4°C 63.7°F17.6°C 62% 1.6 mph NE2.6 kmh NE 3.8 mph6.1 kmh 29.73 in1006.8 mb 0.00 in0.0 mm 0.00 in0.0 mm 0.00 in0.0 mm
01:15 AM 77.7°F25.4°C 64.0°F17.8°C 63% 1.6 mph E2.6 kmh E 4.5 mph7.2 kmh 29.74 in1007.1 mb 0.00 in0.0 mm 0.00 in0.0 mm 0.00 in0.0 mm
01:10 AM 77.7°F25.4°C 64.0°F17.8°C 63% 3.1 mph NNW5.0 kmh NNW 4.5 mph7.2 kmh 29.74 in1007.1 mb 0.00 in0.0 mm 0.00 in0.0 mm 0.00 in0.0 mm
01:05 AM 77.7°F25.4°C 64.0°F17.8°C 63% 2.2 mph 3.5 kmh 3.1 mph5.0 kmh 29.75 in1007.5 mb 0.00 in0.0 mm 0.00 in0.0 mm 0.00 in0.0 mm
01:00 AM 77.7°F25.4°C 64.0°F17.8°C 63% 0.7 mph E1.1 kmh E 3.1 mph5.0 kmh 29.75 in1007.5 mb 0.00 in0.0 mm 0.00 in0.0 mm 0.00 in0.0 mm
12:55 AM 77.7°F25.4°C 64.0°F17.8°C 63% 1.6 mph 2.6 kmh 3.8 mph6.1 kmh 29.75 in1007.5 mb 0.00 in0.0 mm 0.00 in0.0 mm 0.00 in0.0 mm
12:49 AM 78.4°F25.8°C 64.8°F18.2°C 63% 1.6 mph 2.6 kmh 3.8 mph6.1 kmh 29.75 in1007.5 mb 0.00 in0.0 mm 0.00 in0.0 mm 0.00 in0.0 mm
12:44 AM 78.4°F25.8°C 64.8°F18.2°C 63% 2.2 mph E3.5 kmh E 3.8 mph6.1 kmh 29.75 in1007.5 mb 0.00 in0.0 mm 0.00 in0.0 mm 0.00 in0.0 mm
12:39 AM 78.4°F25.8°C 64.8°F18.2°C 63% 3.1 mph NE5.0 kmh NE 3.8 mph6.1 kmh 29.76 in1007.8 mb 0.00 in0.0 mm 0.00 in0.0 mm 0.00 in0.0 mm
12:34 AM 78.6°F25.9°C 64.9°F18.3°C 63% 2.2 mph NE3.5 kmh NE 3.8 mph6.1 kmh 29.75 in1007.5 mb 0.00 in0.0 mm 0.00 in0.0 mm 0.00 in0.0 mm
12:29 AM 78.6°F25.9°C 64.9°F18.3°C 63% 1.6 mph NE2.6 kmh NE 3.1 mph5.0 kmh 29.75 in1007.5 mb 0.00 in0.0 mm 0.00 in0.0 mm 0.00 in0.0 mm
12:23 AM 78.6°F25.9°C 64.9°F18.3°C 63% 1.6 mph NE2.6 kmh NE 4.5 mph7.2 kmh 29.76 in1007.8 mb 0.00 in0.0 mm 0.00 in0.0 mm 0.00 in0.0 mm
12:18 AM 78.6°F25.9°C 64.9°F18.3°C 63% 2.2 mph E3.5 kmh E 4.5 mph7.2 kmh 29.75 in1007.5 mb 0.00 in0.0 mm 0.00 in0.0 mm 0.00 in0.0 mm
12:13 AM 78.4°F25.8°C 64.8°F18.2°C 63% 3.1 mph E5.0 kmh E 4.5 mph7.2 kmh 29.76 in1007.8 mb 0.00 in0.0 mm 0.00 in0.0 mm 0.00 in0.0 mm
12:08 AM 78.4°F25.8°C 64.8°F18.2°C 63% 3.1 mph E5.0 kmh E 4.5 mph7.2 kmh 29.76 in1007.8 mb 0.00 in0.0 mm 0.00 in0.0 mm 0.00 in0.0 mm
12:03 AM 78.4°F25.8°C 64.8°F18.2°C 63% 2.2 mph SE3.5 kmh SE 5.4 mph8.7 kmh 29.76 in1007.8 mb 0.00 in0.0 mm 0.00 in0.0 mm 0.00 in0.0 mm